createdAt,value
2022-12-03T00:00:12.548Z,2.33
2022-12-03T00:01:13.321Z,2.37
2022-12-03T00:01:53.248Z,2.25
2022-12-03T00:02:34.457Z,2.33
2022-12-03T00:03:15.391Z,2.29
2022-12-03T00:04:03.353Z,2.11
2022-12-03T00:04:57.218Z,2.16
2022-12-03T00:05:52.283Z,2.16
2022-12-03T00:06:46.246Z,2.20
2022-12-03T00:07:40.410Z,2.30
2022-12-03T00:08:34.251Z,2.26
2022-12-03T00:09:21.339Z,2.22
2022-12-03T00:09:55.275Z,2.31
2022-12-03T00:10:42.219Z,2.20
2022-12-03T00:11:16.394Z,2.32
2022-12-03T00:12:03.241Z,2.26
2022-12-03T00:12:37.270Z,2.31
2022-12-03T00:13:24.218Z,2.39
2022-12-03T00:13:58.287Z,2.35
2022-12-03T00:14:45.310Z,2.34
2022-12-03T00:15:19.271Z,2.30
2022-12-03T00:16:06.293Z,2.39
2022-12-03T00:16:40.310Z,2.31
2022-12-03T00:17:27.230Z,2.20
2022-12-03T00:18:01.283Z,2.22
2022-12-03T00:18:48.236Z,2.22
2022-12-03T00:19:22.311Z,2.19
2022-12-03T00:20:11.368Z,2.25
2022-12-03T00:20:45.404Z,2.15
2022-12-03T00:21:32.288Z,2.23
2022-12-03T00:22:06.585Z,2.21
2022-12-03T00:22:53.238Z,2.36
2022-12-03T00:23:27.313Z,2.25
2022-12-03T00:24:15.247Z,2.32
2022-12-03T00:24:49.303Z,2.29
2022-12-03T00:25:36.240Z,2.34
2022-12-03T00:26:10.442Z,2.37
2022-12-03T00:26:57.267Z,2.43
2022-12-03T00:27:31.276Z,2.39
2022-12-03T00:28:18.255Z,2.25
2022-12-03T00:28:52.294Z,2.32
2022-12-03T00:29:39.246Z,2.32
2022-12-03T00:30:15.340Z,2.42
2022-12-03T00:30:56.288Z,2.34
2022-12-03T00:31:36.318Z,2.35
2022-12-03T00:32:16.273Z,2.27
2022-12-03T00:32:57.297Z,2.30
2022-12-03T00:33:38.303Z,2.27
2022-12-03T00:34:18.352Z,2.32
2022-12-03T00:34:59.554Z,2.31
2022-12-03T00:35:40.256Z,2.37
2022-12-03T00:36:21.283Z,2.28
2022-12-03T00:37:01.411Z,2.31
2022-12-03T00:37:42.355Z,2.32
2022-12-03T00:38:22.267Z,2.35
2022-12-03T00:39:02.180Z,2.33
2022-12-03T00:39:42.273Z,2.21
2022-12-03T00:40:22.365Z,2.23
2022-12-03T00:41:02.273Z,2.23
2022-12-03T00:41:42.349Z,2.38
2022-12-03T00:42:23.277Z,2.31
2022-12-03T00:43:03.291Z,2.33
2022-12-03T00:43:43.276Z,2.32
2022-12-03T00:44:23.203Z,2.29
2022-12-03T00:45:03.283Z,2.23
2022-12-03T00:45:43.190Z,2.21
2022-12-03T00:46:23.490Z,2.25
2022-12-03T00:47:04.442Z,2.31
2022-12-03T00:47:45.240Z,2.39
2022-12-03T00:48:25.297Z,2.40
2022-12-03T00:49:05.228Z,2.31
2022-12-03T00:49:45.202Z,2.33
2022-12-03T00:50:25.234Z,2.26
2022-12-03T00:51:06.168Z,2.29
2022-12-03T00:51:47.275Z,2.32
2022-12-03T00:52:27.602Z,2.33
2022-12-03T00:53:08.248Z,2.24
2022-12-03T00:53:50.259Z,2.36
2022-12-03T00:54:32.233Z,2.24
2022-12-03T00:55:13.177Z,2.33
2022-12-03T00:55:53.407Z,2.34
2022-12-03T00:56:34.202Z,2.37
2022-12-03T00:57:14.268Z,2.32
2022-12-03T00:57:54.206Z,2.30
2022-12-03T00:58:34.244Z,2.20
2022-12-03T00:59:14.182Z,2.32
2022-12-03T00:59:54.272Z,2.36
2022-12-03T01:00:34.288Z,2.31
2022-12-03T01:01:15.362Z,2.40
2022-12-03T01:01:55.278Z,2.36
2022-12-03T01:02:36.211Z,2.33
2022-12-03T01:03:17.227Z,2.36
2022-12-03T01:03:57.249Z,2.39
2022-12-03T01:04:37.223Z,2.36
2022-12-03T01:05:18.302Z,2.26
2022-12-03T01:05:59.181Z,2.27
2022-12-03T01:06:39.219Z,2.33
2022-12-03T01:07:21.155Z,2.32
2022-12-03T01:08:01.241Z,2.22
2022-12-03T01:08:41.207Z,2.22
2022-12-03T01:09:21.303Z,2.30
2022-12-03T01:10:01.172Z,2.34
2022-12-03T01:10:42.229Z,2.20
2022-12-03T01:11:41.207Z,2.16
2022-12-03T01:12:21.201Z,2.20
2022-12-03T01:13:01.180Z,2.22
2022-12-03T01:13:48.186Z,2.22
2022-12-03T01:14:42.162Z,2.24
2022-12-03T01:15:36.268Z,2.28
2022-12-03T01:16:30.209Z,2.23
2022-12-03T01:17:24.120Z,2.31
2022-12-03T01:18:18.171Z,2.30
2022-12-03T01:19:05.245Z,2.23
2022-12-03T01:19:46.519Z,2.25
2022-12-03T01:20:35.229Z,2.22
2022-12-03T01:21:09.220Z,2.27
2022-12-03T01:21:58.221Z,2.31
2022-12-03T01:22:32.356Z,2.31
2022-12-03T01:23:19.126Z,2.34
2022-12-03T01:23:53.228Z,2.27
2022-12-03T01:24:35.237Z,2.21
2022-12-03T01:25:16.296Z,2.13
2022-12-03T01:25:57.175Z,2.23
2022-12-03T01:26:38.366Z,2.23
2022-12-03T01:27:19.220Z,2.13
2022-12-03T01:27:59.194Z,2.21
2022-12-03T01:28:39.185Z,2.33
2022-12-03T01:29:20.249Z,2.33
2022-12-03T01:30:01.192Z,2.28
2022-12-03T01:31:01.661Z,2.28
2022-12-03T01:32:02.167Z,2.18
2022-12-03T01:32:42.326Z,2.23
2022-12-03T01:33:22.273Z,2.21
2022-12-03T01:34:02.221Z,2.20
2022-12-03T01:34:43.162Z,2.19
2022-12-03T01:35:23.151Z,2.30
2022-12-03T01:35:57.230Z,2.31
2022-12-03T01:36:44.124Z,2.37
2022-12-03T01:37:18.223Z,2.37
2022-12-03T01:38:05.129Z,2.44
2022-12-03T01:38:39.200Z,2.49
2022-12-03T01:39:27.127Z,2.41
2022-12-03T01:40:01.188Z,2.45
2022-12-03T01:40:48.145Z,2.48
2022-12-03T01:41:24.192Z,2.38
2022-12-03T01:42:12.122Z,2.55
2022-12-03T01:42:48.145Z,2.51
2022-12-03T01:43:35.112Z,2.50
2022-12-03T01:44:21.214Z,2.35
2022-12-03T01:45:09.131Z,2.38
2022-12-03T01:45:43.196Z,2.31
2022-12-03T01:46:28.247Z,2.36
2022-12-03T01:47:11.223Z,2.31
2022-12-03T01:47:52.130Z,2.44
2022-12-03T01:48:32.183Z,2.35
2022-12-03T01:49:13.154Z,2.45
2022-12-03T01:50:30.145Z,2.32
2022-12-03T01:51:11.127Z,2.49
2022-12-03T01:51:52.236Z,2.44
2022-12-03T01:52:30.235Z,2.52
2022-12-03T01:53:22.129Z,2.46
2022-12-03T01:53:56.251Z,2.49
2022-12-03T01:54:51.534Z,2.34
2022-12-03T01:55:28.144Z,2.30
2022-12-03T01:56:18.260Z,2.35
2022-12-03T01:56:52.146Z,2.19
2022-12-03T01:57:46.148Z,2.38
2022-12-03T01:58:33.165Z,2.48
2022-12-03T01:59:13.127Z,2.42
2022-12-03T01:59:54.192Z,2.46
2022-12-03T02:00:36.189Z,2.45
2022-12-03T02:01:23.316Z,2.44
2022-12-03T02:02:03.219Z,2.42
2022-12-03T02:02:43.143Z,2.52
2022-12-03T02:03:31.170Z,2.53
2022-12-03T02:04:11.255Z,2.60
2022-12-03T02:04:51.472Z,2.53
2022-12-03T02:05:35.155Z,2.62
2022-12-03T02:06:26.085Z,2.59
2022-12-03T02:07:28.261Z,2.54
2022-12-03T02:08:09.117Z,2.62
2022-12-03T02:08:49.128Z,2.64
2022-12-03T02:09:23.120Z,2.59
2022-12-03T02:10:12.072Z,2.56
2022-12-03T02:10:46.244Z,2.53
2022-12-03T02:11:39.140Z,2.47
2022-12-03T02:12:13.171Z,2.39
2022-12-03T02:13:15.054Z,2.47
2022-12-03T02:14:04.115Z,2.55
2022-12-03T02:14:37.871Z,2.52
2022-12-03T02:15:26.053Z,2.53
2022-12-03T02:15:59.886Z,2.54
2022-12-03T02:16:50.152Z,2.61
2022-12-03T02:17:26.511Z,2.65
2022-12-03T02:18:13.075Z,2.66
2022-12-03T02:18:46.793Z,2.69
2022-12-03T02:19:32.305Z,2.71
2022-12-03T02:20:07.171Z,2.49
2022-12-03T02:21:15.149Z,2.45
2022-12-03T02:22:12.268Z,2.58
2022-12-03T02:23:11.158Z,2.59
2022-12-03T02:24:05.439Z,2.59
2022-12-03T02:25:24.085Z,2.63
2022-12-03T02:25:58.143Z,2.72
2022-12-03T02:26:32.860Z,2.69
2022-12-03T02:27:13.136Z,2.63
2022-12-03T02:27:47.116Z,2.62
2022-12-03T02:28:20.737Z,2.60
2022-12-03T02:29:01.094Z,2.59
2022-12-03T02:29:35.066Z,2.53
2022-12-03T02:30:10.962Z,2.49
2022-12-03T02:30:52.104Z,2.47
2022-12-03T02:31:26.172Z,2.50
2022-12-03T02:31:59.818Z,2.40
2022-12-03T02:32:40.088Z,2.58
2022-12-03T02:33:14.138Z,2.57
2022-12-03T02:33:47.815Z,2.56
2022-12-03T02:34:49.083Z,2.57
2022-12-03T02:35:29.290Z,2.61
2022-12-03T02:36:10.098Z,2.62
2022-12-03T02:36:50.146Z,2.48
2022-12-03T02:37:34.108Z,2.59
2022-12-03T02:38:34.247Z,2.68
2022-12-03T02:39:14.062Z,2.73
2022-12-03T02:39:59.106Z,2.75
2022-12-03T02:40:40.054Z,2.70
2022-12-03T02:41:47.088Z,2.70
2022-12-03T02:42:36.447Z,2.73
2022-12-03T02:43:23.062Z,2.71
2022-12-03T02:43:56.779Z,2.76
2022-12-03T02:44:45.087Z,2.73
2022-12-03T02:45:32.540Z,2.75
2022-12-03T02:46:22.129Z,2.76
2022-12-03T02:47:02.152Z,2.79
2022-12-03T02:47:53.292Z,2.78
2022-12-03T02:48:38.073Z,2.73
2022-12-03T02:49:19.112Z,2.71
2022-12-03T02:49:59.087Z,2.74
2022-12-03T02:50:44.270Z,2.65
2022-12-03T02:51:24.073Z,2.69
2022-12-03T02:52:11.184Z,2.76
2022-12-03T02:52:46.187Z,2.81
2022-12-03T02:53:38.071Z,2.78
2022-12-03T02:54:12.763Z,2.86
2022-12-03T02:55:01.072Z,2.88
2022-12-03T02:55:37.401Z,2.87
2022-12-03T02:56:34.120Z,2.84
2022-12-03T02:57:07.800Z,2.84
2022-12-03T02:57:50.092Z,2.90
2022-12-03T02:58:24.072Z,2.91
2022-12-03T02:59:02.256Z,2.78
2022-12-03T02:59:42.029Z,2.90
2022-12-03T03:00:17.208Z,2.96
2022-12-03T03:00:53.016Z,2.97
2022-12-03T03:01:34.127Z,2.85
2022-12-03T03:02:08.105Z,2.94
2022-12-03T03:02:42.369Z,2.97
2022-12-03T03:03:24.139Z,2.96
2022-12-03T03:03:59.099Z,2.96
2022-12-03T03:04:32.717Z,2.87
2022-12-03T03:05:15.040Z,2.86
2022-12-03T03:05:49.098Z,2.86
2022-12-03T03:06:22.863Z,2.86
2022-12-03T03:07:03.038Z,2.92
2022-12-03T03:07:37.089Z,2.78
2022-12-03T03:08:10.894Z,2.92
2022-12-03T03:08:52.059Z,2.96
2022-12-03T03:09:27.127Z,2.92
2022-12-03T03:10:01.147Z,3.04
2022-12-03T03:10:42.025Z,3.04
2022-12-03T03:11:16.101Z,2.98
2022-12-03T03:11:49.801Z,2.89
2022-12-03T03:12:31.794Z,2.96
2022-12-03T03:13:11.134Z,2.96
2022-12-03T03:13:45.927Z,2.96
2022-12-03T03:14:27.079Z,2.99
2022-12-03T03:15:01.070Z,2.95
2022-12-03T03:15:37.271Z,3.04
2022-12-03T03:16:17.203Z,2.98
2022-12-03T03:16:56.148Z,3.00
2022-12-03T03:17:29.751Z,3.07
2022-12-03T03:18:12.028Z,3.03
2022-12-03T03:18:46.071Z,3.03
2022-12-03T03:19:19.663Z,3.03
2022-12-03T03:20:00.028Z,3.05
2022-12-03T03:20:34.064Z,3.04
2022-12-03T03:21:07.923Z,3.04
2022-12-03T03:21:48.030Z,3.00
2022-12-03T03:22:22.144Z,3.01
2022-12-03T03:23:25.350Z,2.95
2022-12-03T03:24:05.012Z,2.97
2022-12-03T03:24:39.229Z,2.97
2022-12-03T03:25:23.083Z,3.02
2022-12-03T03:26:13.073Z,2.99
2022-12-03T03:26:53.047Z,2.93
2022-12-03T03:27:34.068Z,2.95
2022-12-03T03:28:13.991Z,2.99
2022-12-03T03:29:00.001Z,2.98
2022-12-03T03:29:41.032Z,2.96
2022-12-03T03:30:22.051Z,2.95
2022-12-03T03:31:03.027Z,3.00
2022-12-03T03:31:44.165Z,2.99
2022-12-03T03:32:24.080Z,3.03
2022-12-03T03:33:05.054Z,3.06
2022-12-03T03:33:46.986Z,3.07
2022-12-03T03:34:28.035Z,3.06
2022-12-03T03:35:07.990Z,2.92
2022-12-03T03:35:50.429Z,2.98
2022-12-03T03:36:32.059Z,3.00
2022-12-03T03:37:12.071Z,2.99
2022-12-03T03:37:52.016Z,2.95
2022-12-03T03:38:32.011Z,2.90
2022-12-03T03:39:12.985Z,2.89
2022-12-03T03:39:53.076Z,2.80
2022-12-03T03:40:33.999Z,2.77
2022-12-03T03:41:15.044Z,2.77
2022-12-03T03:41:55.025Z,2.91
2022-12-03T03:42:36.065Z,2.93
2022-12-03T03:43:16.018Z,2.97
2022-12-03T03:43:57.043Z,2.95
2022-12-03T03:44:37.009Z,2.99
2022-12-03T03:45:18.087Z,2.99
2022-12-03T03:46:00.012Z,2.99
2022-12-03T03:46:41.031Z,3.00
2022-12-03T03:47:20.991Z,2.86
2022-12-03T03:48:02.010Z,2.88
2022-12-03T03:48:43.003Z,2.83
2022-12-03T03:49:23.048Z,2.84
2022-12-03T03:50:02.990Z,2.87
2022-12-03T03:50:44.058Z,2.92
2022-12-03T03:51:25.005Z,2.88
2022-12-03T03:52:05.005Z,2.89
2022-12-03T03:52:46.056Z,2.89
2022-12-03T03:53:27.010Z,2.74
2022-12-03T03:54:07.973Z,2.90
2022-12-03T03:54:48.003Z,2.86
2022-12-03T03:55:29.006Z,2.91
2022-12-03T03:56:09.623Z,2.85
2022-12-03T03:56:49.978Z,2.94
2022-12-03T03:57:30.116Z,2.94
2022-12-03T03:58:09.982Z,2.96
2022-12-03T03:58:51.023Z,2.92
2022-12-03T03:59:31.067Z,2.90
2022-12-03T04:00:15.362Z,2.97
2022-12-03T04:00:56.039Z,2.92
2022-12-03T04:01:37.088Z,2.98
2022-12-03T04:02:31.004Z,2.81
2022-12-03T04:03:20.016Z,2.90
2022-12-03T04:03:53.909Z,2.93
2022-12-03T04:04:42.969Z,2.83
2022-12-03T04:05:22.604Z,2.85
2022-12-03T04:06:09.960Z,2.89
2022-12-03T04:06:43.691Z,2.72
2022-12-03T04:07:31.039Z,2.83
2022-12-03T04:08:04.969Z,2.89
2022-12-03T04:08:44.990Z,2.90
2022-12-03T04:09:19.008Z,2.90
2022-12-03T04:09:53.633Z,2.99
2022-12-03T04:10:52.984Z,3.00
2022-12-03T04:11:51.790Z,2.91
2022-12-03T04:12:51.036Z,3.01
2022-12-03T04:13:31.001Z,2.96
2022-12-03T04:14:10.988Z,2.98
2022-12-03T04:14:52.416Z,2.90
2022-12-03T04:15:33.009Z,2.96
2022-12-03T04:16:14.103Z,2.97
2022-12-03T04:16:54.086Z,2.92
2022-12-03T04:17:33.982Z,2.96
2022-12-03T04:18:33.037Z,2.86
2022-12-03T04:19:20.997Z,2.93
2022-12-03T04:19:54.625Z,2.91
2022-12-03T04:20:41.937Z,2.83
2022-12-03T04:21:41.511Z,2.85
2022-12-03T04:22:48.963Z,2.98
2022-12-03T04:23:26.289Z,2.89
2022-12-03T04:24:19.963Z,2.95
2022-12-03T04:25:19.945Z,2.85
2022-12-03T04:26:18.811Z,2.79
2022-12-03T04:27:17.950Z,2.67
2022-12-03T04:28:16.688Z,2.88
2022-12-03T04:28:57.978Z,2.82
2022-12-03T04:29:44.970Z,2.76
2022-12-03T04:30:18.711Z,2.72
2022-12-03T04:31:05.969Z,2.78
2022-12-03T04:31:58.817Z,2.81
2022-12-03T04:33:04.896Z,2.87
2022-12-03T04:33:57.221Z,2.86
2022-12-03T04:35:02.019Z,2.87
2022-12-03T04:35:44.416Z,2.78
2022-12-03T04:36:31.981Z,2.86
2022-12-03T04:37:05.626Z,2.84
2022-12-03T04:37:53.942Z,2.86
2022-12-03T04:38:28.606Z,2.94
2022-12-03T04:39:15.930Z,2.86
2022-12-03T04:39:49.687Z,2.96
2022-12-03T04:40:48.999Z,3.01
2022-12-03T04:41:22.975Z,2.96
2022-12-03T04:41:56.647Z,2.85
2022-12-03T04:42:36.935Z,2.87
2022-12-03T04:43:10.941Z,2.91
2022-12-03T04:44:03.436Z,2.92
2022-12-03T04:44:43.917Z,2.90
2022-12-03T04:45:17.952Z,2.93
2022-12-03T04:45:57.966Z,2.93
2022-12-03T04:46:37.957Z,2.86
2022-12-03T04:47:20.947Z,2.88
2022-12-03T04:48:02.070Z,2.81
2022-12-03T04:48:41.918Z,2.88
2022-12-03T04:49:21.972Z,2.79
2022-12-03T04:50:01.936Z,2.77
2022-12-03T04:50:42.011Z,2.81
2022-12-03T04:51:21.933Z,2.78
2022-12-03T04:52:02.027Z,2.72
2022-12-03T04:52:42.894Z,2.84
2022-12-03T04:53:22.923Z,2.79
2022-12-03T04:54:02.904Z,2.75
2022-12-03T04:54:44.036Z,2.79
2022-12-03T04:55:23.973Z,2.81
2022-12-03T04:56:03.936Z,2.74
2022-12-03T04:56:43.999Z,2.83
2022-12-03T04:57:24.948Z,2.83
2022-12-03T04:58:04.951Z,2.77
2022-12-03T04:58:44.979Z,2.78
2022-12-03T04:59:24.924Z,2.77
2022-12-03T05:00:04.976Z,2.80
2022-12-03T05:00:44.907Z,2.84
2022-12-03T05:01:25.015Z,2.81
2022-12-03T05:02:06.128Z,2.83
2022-12-03T05:02:45.998Z,2.86
2022-12-03T05:03:25.919Z,2.77
2022-12-03T05:04:05.924Z,2.84
2022-12-03T05:04:45.891Z,2.88
2022-12-03T05:05:25.966Z,2.77
2022-12-03T05:06:05.898Z,2.81
2022-12-03T05:06:48.061Z,2.81
2022-12-03T05:07:27.977Z,2.81
2022-12-03T05:08:08.301Z,2.84
2022-12-03T05:08:48.948Z,2.84
2022-12-03T05:09:31.056Z,2.86
2022-12-03T05:10:13.905Z,2.85
2022-12-03T05:10:55.036Z,2.89
2022-12-03T05:11:38.326Z,2.88
2022-12-03T05:12:18.988Z,2.94
2022-12-03T05:12:58.951Z,2.97
2022-12-03T05:13:39.917Z,2.96
2022-12-03T05:14:20.947Z,2.98
2022-12-03T05:15:00.984Z,2.81
2022-12-03T05:15:41.946Z,2.81
2022-12-03T05:16:22.976Z,2.90
2022-12-03T05:17:03.019Z,2.99
2022-12-03T05:17:42.968Z,2.91
2022-12-03T05:18:22.922Z,2.90
2022-12-03T05:19:02.931Z,2.86
2022-12-03T05:20:01.875Z,2.82
2022-12-03T05:20:41.988Z,2.91
2022-12-03T05:21:22.932Z,2.89
2022-12-03T05:22:02.990Z,2.84
2022-12-03T05:22:43.154Z,2.88
2022-12-03T05:23:29.940Z,2.92
2022-12-03T05:24:03.923Z,2.95
2022-12-03T05:24:51.187Z,2.83
2022-12-03T05:25:25.627Z,2.87
2022-12-03T05:26:14.901Z,2.84
2022-12-03T05:26:48.634Z,2.80
2022-12-03T05:27:35.899Z,2.73
2022-12-03T05:28:09.584Z,2.73
2022-12-03T05:28:49.926Z,2.81
2022-12-03T05:29:23.946Z,2.89
2022-12-03T05:29:57.558Z,2.72
2022-12-03T05:30:38.947Z,2.83
2022-12-03T05:31:13.114Z,2.85
2022-12-03T05:31:47.586Z,2.88
2022-12-03T05:32:27.837Z,2.83
2022-12-03T05:33:01.947Z,2.77
2022-12-03T05:33:39.483Z,2.74
2022-12-03T05:34:23.951Z,2.78
2022-12-03T05:35:00.364Z,2.86
2022-12-03T05:35:34.541Z,2.88
2022-12-03T05:36:15.939Z,2.88
2022-12-03T05:36:49.951Z,2.88
2022-12-03T05:37:23.521Z,2.80
2022-12-03T05:38:03.860Z,2.79
2022-12-03T05:38:37.973Z,2.80
2022-12-03T05:39:12.709Z,2.78
2022-12-03T05:39:52.942Z,2.91
2022-12-03T05:40:26.915Z,2.90
2022-12-03T05:41:00.696Z,2.89
2022-12-03T05:41:59.827Z,2.95
2022-12-03T05:42:52.482Z,2.85
2022-12-03T05:43:26.631Z,2.74
2022-12-03T05:44:07.832Z,2.74
2022-12-03T05:44:41.861Z,2.64
2022-12-03T05:45:21.898Z,2.66
2022-12-03T05:46:02.060Z,2.70
2022-12-03T05:46:41.970Z,2.75
2022-12-03T05:47:21.939Z,2.76
2022-12-03T05:48:03.830Z,2.77
2022-12-03T05:48:44.968Z,2.83
2022-12-03T05:49:24.932Z,2.72
2022-12-03T05:50:05.008Z,2.80
2022-12-03T05:50:46.917Z,2.85
2022-12-03T05:51:26.942Z,2.86
2022-12-03T05:52:06.891Z,2.87
2022-12-03T05:52:46.912Z,2.89
2022-12-03T05:53:27.846Z,2.91
2022-12-03T05:54:07.944Z,2.81
2022-12-03T05:54:47.835Z,2.97
2022-12-03T05:55:27.890Z,2.99
2022-12-03T05:56:07.878Z,2.95
2022-12-03T05:56:47.871Z,2.95
2022-12-03T05:57:27.819Z,2.91
2022-12-03T05:58:08.885Z,2.91
2022-12-03T05:58:48.831Z,2.87
2022-12-03T05:59:28.915Z,2.90
2022-12-03T06:00:08.868Z,2.96
2022-12-03T06:00:48.868Z,2.95
2022-12-03T06:01:28.971Z,2.78
2022-12-03T06:02:08.939Z,2.79
2022-12-03T06:02:49.968Z,2.82
2022-12-03T06:03:30.009Z,2.80
2022-12-03T06:04:09.919Z,2.89
2022-12-03T06:04:49.895Z,2.91
2022-12-03T06:05:29.827Z,2.89
2022-12-03T06:06:09.894Z,2.76
2022-12-03T06:06:49.844Z,2.86
2022-12-03T06:07:30.957Z,2.78
2022-12-03T06:08:10.889Z,2.84
2022-12-03T06:08:50.871Z,2.91
2022-12-03T06:09:30.896Z,2.81
2022-12-03T06:10:14.159Z,2.88
2022-12-03T06:10:54.814Z,2.98
2022-12-03T06:11:36.979Z,2.80
2022-12-03T06:12:17.848Z,2.83
2022-12-03T06:12:58.927Z,2.86
2022-12-03T06:13:38.844Z,2.74
2022-12-03T06:14:18.864Z,2.77
2022-12-03T06:14:58.840Z,2.72
2022-12-03T06:15:43.573Z,2.77
2022-12-03T06:16:23.869Z,2.75
2022-12-03T06:17:05.088Z,2.79
2022-12-03T06:17:45.819Z,2.85
2022-12-03T06:18:25.889Z,2.87
2022-12-03T06:19:05.832Z,2.66
2022-12-03T06:19:45.879Z,2.74
2022-12-03T06:20:26.904Z,2.79
2022-12-03T06:21:06.875Z,2.78
2022-12-03T06:21:47.853Z,2.83
2022-12-03T06:22:27.855Z,2.78
2022-12-03T06:23:07.855Z,2.86
2022-12-03T06:23:47.824Z,2.93
2022-12-03T06:24:27.763Z,2.91
2022-12-03T06:25:07.867Z,2.94
2022-12-03T06:25:47.824Z,2.95
2022-12-03T06:26:30.113Z,2.98
2022-12-03T06:27:09.853Z,2.86
2022-12-03T06:27:49.883Z,2.85
2022-12-03T06:28:29.860Z,2.88
2022-12-03T06:29:10.022Z,2.86
2022-12-03T06:29:49.819Z,2.83
2022-12-03T06:30:29.917Z,2.90
2022-12-03T06:31:10.839Z,2.90
2022-12-03T06:31:50.862Z,2.87
2022-12-03T06:32:30.790Z,2.79
2022-12-03T06:33:10.884Z,2.75
2022-12-03T06:33:50.902Z,2.82
2022-12-03T06:34:30.840Z,2.89
2022-12-03T06:35:10.778Z,2.86
2022-12-03T06:35:51.881Z,2.91
2022-12-03T06:36:33.791Z,2.75
2022-12-03T06:37:14.091Z,2.78
2022-12-03T06:37:53.832Z,2.78
2022-12-03T06:38:33.879Z,2.76
2022-12-03T06:39:13.841Z,2.80
2022-12-03T06:39:53.870Z,2.81
2022-12-03T06:40:34.881Z,2.80
2022-12-03T06:41:14.804Z,2.82
2022-12-03T06:41:54.829Z,2.72
2022-12-03T06:42:34.818Z,2.83
2022-12-03T06:43:15.778Z,2.87
2022-12-03T06:43:55.866Z,2.79
2022-12-03T06:44:35.815Z,2.85
2022-12-03T06:45:16.845Z,2.87
2022-12-03T06:45:56.812Z,2.92
2022-12-03T06:46:36.983Z,2.89
2022-12-03T06:47:16.767Z,2.95
2022-12-03T06:47:56.874Z,2.89
2022-12-03T06:48:43.784Z,2.93
2022-12-03T06:49:17.831Z,3.05
2022-12-03T06:49:58.822Z,3.06
2022-12-03T06:50:38.847Z,3.10
2022-12-03T06:51:18.802Z,3.12
2022-12-03T06:51:58.887Z,3.12
2022-12-03T06:52:39.777Z,3.07
2022-12-03T06:53:19.915Z,3.09
2022-12-03T06:53:59.789Z,3.14
2022-12-03T06:54:40.818Z,3.13
2022-12-03T06:55:20.823Z,3.15
2022-12-03T06:56:01.169Z,3.11
2022-12-03T06:56:45.121Z,3.09
2022-12-03T06:57:25.846Z,3.09
2022-12-03T06:58:05.811Z,2.90
2022-12-03T06:58:45.828Z,3.06
2022-12-03T06:59:26.759Z,3.12
2022-12-03T07:00:08.779Z,3.09
2022-12-03T07:00:48.788Z,3.06
2022-12-03T07:01:29.526Z,3.00
2022-12-03T07:03:12.842Z,2.97
2022-12-03T07:03:46.837Z,2.79
2022-12-03T07:04:33.789Z,2.96
2022-12-03T07:05:07.827Z,3.05
2022-12-03T07:05:54.891Z,3.03
2022-12-03T07:06:28.827Z,2.98
2022-12-03T07:07:15.746Z,2.95
2022-12-03T07:07:52.264Z,2.93
2022-12-03T07:08:39.768Z,2.91
2022-12-03T07:09:16.358Z,2.95
2022-12-03T07:10:03.736Z,3.01
2022-12-03T07:10:37.841Z,3.04
2022-12-03T07:11:36.837Z,3.06
2022-12-03T07:12:16.917Z,3.01
2022-12-03T07:12:57.839Z,3.07
2022-12-03T07:13:37.882Z,3.06
2022-12-03T07:14:17.804Z,3.17
2022-12-03T07:15:11.762Z,3.17
2022-12-03T07:16:05.807Z,3.07
2022-12-03T07:16:52.789Z,3.10
2022-12-03T07:17:26.790Z,3.02
2022-12-03T07:18:13.791Z,3.07
2022-12-03T07:18:47.777Z,3.10
2022-12-03T07:19:34.768Z,3.11
2022-12-03T07:20:09.109Z,3.05
2022-12-03T07:20:55.744Z,3.07
2022-12-03T07:21:30.010Z,2.86
2022-12-03T07:22:16.779Z,3.11
2022-12-03T07:22:50.894Z,3.10
2022-12-03T07:23:37.736Z,3.08
2022-12-03T07:24:12.779Z,3.03
2022-12-03T07:24:59.725Z,3.10
2022-12-03T07:25:33.830Z,3.02
2022-12-03T07:26:20.905Z,2.99
2022-12-03T07:26:54.810Z,2.99
2022-12-03T07:27:41.745Z,3.00
2022-12-03T07:28:15.753Z,3.15
2022-12-03T07:29:02.744Z,3.13
2022-12-03T07:29:36.867Z,3.01
2022-12-03T07:30:24.771Z,3.11
2022-12-03T07:30:58.903Z,3.09
2022-12-03T07:31:45.860Z,3.12
2022-12-03T07:32:19.825Z,3.05
2022-12-03T07:33:06.754Z,3.15
2022-12-03T07:33:40.935Z,3.10
2022-12-03T07:34:27.758Z,3.21
2022-12-03T07:35:02.826Z,3.17
2022-12-03T07:35:49.777Z,3.22
2022-12-03T07:36:23.912Z,3.15
2022-12-03T07:37:11.771Z,3.16
2022-12-03T07:37:48.451Z,3.13
2022-12-03T07:38:28.811Z,3.16
2022-12-03T07:39:08.936Z,2.97
2022-12-03T07:39:48.775Z,3.12
2022-12-03T07:40:29.875Z,3.08
2022-12-03T07:41:10.731Z,3.14
2022-12-03T07:41:50.893Z,3.10
2022-12-03T07:42:30.711Z,3.15
2022-12-03T07:43:11.778Z,3.23
2022-12-03T07:43:51.774Z,3.10
2022-12-03T07:44:32.014Z,3.13
2022-12-03T07:45:13.799Z,3.10
2022-12-03T07:45:53.830Z,2.99
2022-12-03T07:46:33.833Z,3.13
2022-12-03T07:47:13.843Z,3.22
2022-12-03T07:47:53.728Z,3.10
2022-12-03T07:48:33.808Z,3.13
2022-12-03T07:49:14.770Z,3.21
2022-12-03T07:49:55.815Z,3.16
2022-12-03T07:50:36.773Z,3.14
2022-12-03T07:51:17.816Z,3.12
2022-12-03T07:52:00.728Z,3.20
2022-12-03T07:52:40.767Z,3.16
2022-12-03T07:53:20.718Z,3.16
2022-12-03T07:54:00.918Z,3.20
2022-12-03T07:54:41.756Z,3.14
2022-12-03T07:55:21.803Z,3.06
2022-12-03T07:56:02.818Z,3.17
2022-12-03T07:56:42.941Z,3.18
2022-12-03T07:57:22.737Z,3.20
2022-12-03T07:58:02.890Z,3.20
2022-12-03T07:58:42.769Z,3.09
2022-12-03T07:59:24.764Z,3.10
2022-12-03T08:00:04.751Z,3.17
2022-12-03T08:00:44.802Z,3.10
2022-12-03T08:01:24.794Z,3.15
2022-12-03T08:02:21.596Z,3.20
2022-12-03T08:03:15.680Z,3.17
2022-12-03T08:04:09.764Z,3.28
2022-12-03T08:05:03.993Z,3.28
2022-12-03T08:05:43.713Z,3.29
2022-12-03T08:06:23.795Z,3.32
2022-12-03T08:07:03.739Z,3.35
2022-12-03T08:07:43.802Z,3.26
2022-12-03T08:08:24.698Z,3.38
2022-12-03T08:09:04.777Z,3.40
2022-12-03T08:09:45.738Z,3.31
2022-12-03T08:10:25.832Z,3.36
2022-12-03T08:10:59.763Z,3.14
2022-12-03T08:11:46.721Z,3.27
2022-12-03T08:12:40.573Z,3.27
2022-12-03T08:13:27.688Z,3.26
2022-12-03T08:14:05.716Z,3.22
2022-12-03T08:14:53.133Z,3.19
2022-12-03T08:15:39.558Z,3.34
2022-12-03T08:16:35.753Z,3.36
2022-12-03T08:17:29.690Z,3.41
2022-12-03T08:18:30.708Z,3.44
2022-12-03T08:19:26.710Z,3.39
2022-12-03T08:20:30.735Z,3.43
2022-12-03T08:21:15.777Z,3.40
2022-12-03T08:22:01.105Z,3.28
2022-12-03T08:22:42.694Z,3.35
2022-12-03T08:23:26.820Z,3.40
2022-12-03T08:24:23.707Z,3.50
2022-12-03T08:25:26.719Z,3.51
2022-12-03T08:26:34.693Z,3.43
2022-12-03T08:27:32.815Z,3.52
2022-12-03T08:28:34.731Z,3.59
2022-12-03T08:29:33.709Z,3.62
2022-12-03T08:30:29.743Z,3.61
2022-12-03T08:31:30.876Z,3.64
2022-12-03T08:32:16.726Z,3.51
2022-12-03T08:32:57.759Z,3.59
2022-12-03T08:33:43.697Z,3.64
2022-12-03T08:34:26.753Z,3.67
2022-12-03T08:35:08.734Z,3.64
2022-12-03T08:35:55.807Z,3.66
2022-12-03T08:36:37.676Z,3.66
2022-12-03T08:37:31.701Z,3.63
2022-12-03T08:38:26.631Z,3.71
2022-12-03T08:39:48.682Z,3.69
2022-12-03T08:40:53.791Z,3.74
2022-12-03T08:42:13.445Z,3.68
2022-12-03T08:42:54.746Z,3.68
2022-12-03T08:43:36.662Z,3.64
2022-12-03T08:44:35.777Z,3.67
2022-12-03T08:45:45.753Z,3.78
2022-12-03T08:46:40.720Z,3.69
2022-12-03T08:47:37.726Z,3.80
2022-12-03T08:48:40.668Z,3.73
2022-12-03T08:49:29.821Z,3.71
2022-12-03T08:50:42.650Z,3.59
2022-12-03T08:51:28.748Z,3.68
2022-12-03T08:52:19.649Z,3.73
2022-12-03T08:53:02.659Z,3.80
2022-12-03T08:53:48.657Z,3.77
2022-12-03T08:54:28.828Z,3.71
2022-12-03T08:55:42.688Z,3.79
2022-12-03T08:56:36.799Z,3.78
2022-12-03T08:57:38.681Z,3.84
2022-12-03T08:58:31.869Z,3.79
2022-12-03T08:59:35.648Z,3.83
2022-12-03T09:00:29.723Z,3.80
2022-12-03T09:01:31.804Z,3.78
2022-12-03T09:02:21.676Z,3.74
2022-12-03T09:03:06.647Z,3.73
2022-12-03T09:03:57.791Z,3.73
2022-12-03T09:04:50.750Z,3.73
2022-12-03T09:05:37.408Z,3.78
2022-12-03T09:06:17.619Z,3.82
2022-12-03T09:06:58.767Z,3.89
2022-12-03T09:07:39.713Z,3.90
2022-12-03T09:08:19.706Z,3.86
2022-12-03T09:09:05.168Z,3.88
2022-12-03T09:09:46.726Z,3.89
2022-12-03T09:10:27.016Z,3.90
2022-12-03T09:11:07.676Z,3.93
2022-12-03T09:11:49.603Z,3.95
2022-12-03T09:12:30.655Z,3.96
2022-12-03T09:13:10.652Z,3.96
2022-12-03T09:13:50.672Z,3.94
2022-12-03T09:14:30.656Z,3.90
2022-12-03T09:15:11.739Z,3.94
2022-12-03T09:15:51.641Z,3.96
2022-12-03T09:16:31.704Z,3.97
2022-12-03T09:17:18.634Z,4.02
2022-12-03T09:17:52.692Z,4.05
2022-12-03T09:18:40.617Z,4.06
2022-12-03T09:19:14.724Z,4.08
2022-12-03T09:20:01.610Z,4.11
2022-12-03T09:20:35.684Z,4.10
2022-12-03T09:21:15.675Z,4.17
2022-12-03T09:21:56.671Z,4.16
2022-12-03T09:22:36.637Z,4.12
2022-12-03T09:23:16.777Z,4.14
2022-12-03T09:23:56.638Z,4.00
2022-12-03T09:24:36.644Z,4.11
2022-12-03T09:25:16.592Z,4.09
2022-12-03T09:25:56.800Z,4.04
2022-12-03T09:26:37.719Z,4.08
2022-12-03T09:27:17.692Z,4.13
2022-12-03T09:27:57.711Z,4.14